Aérodrome :
LOGIN :

S'inscrire | Disclaimer

   EN    FR    IT 

 










Légende :    VFR   VFR Marginal   IFR   IFR Intensif   IFR Très Intensif
Visi : 
Plafond : 
>= 8 km
>= 3000ft
5 à 8 km
1000 à 3000 ft
1500m à 5 km
500 à 1000 ft
800 à 1500m
200 à 500 ft
< 800m
< 200 ft
Symboles :   Orages  Brouillard  Fortes neiges  Fortes précipitations  Vent > 20 kt
SIGMETs :   Divers  Orages  Givrage  Turbulence  Onde Orograph.  Cendres Volcan.







- Altitude de l'aérodrome : 1115 ft
- Code IATA : GRZ


LOWG - Graz

DERNIER METAR :
  • 240120Z 36002KT 2000 0700W R17/P1500D R35/P1500U FZBCFG SCT250 M03/M04 Q1029 TEMPO 0400 FZFG

METARs EXPIRÉS :
  • 240050Z 00000KT 1000 0200W R17/P1500U R35/0500D FZBCFG FEW250 M04/M04 Q1029 TEMPO 0400 FZFG
  • 240020Z VRB01KT 2500 0500W R17/P1500D R35/P1500U FZBCFG FEW250 M03/M03 Q1029 TEMPO 0400 FZFG
  • 232350Z 00000KT 4500 0600S R17/P1500U R35/P1500D FZBCFG FEW250 M03/M04 Q1029 TEMPO 0800
  • 232320Z VRB01KT 8000 0600W R17/P1500D R35/P1500D FZBCFG FEW250 M02/M03 Q1029 BECMG 4000
  • 232250Z 35002KT 8000 2500S MIFG BR FEW060 M02/M03 Q1029 BECMG 4000 FZBCFG

TAF TAF LOWG
Valide du 24 à 00h jusqu'au 25 à 00h UTC


232315Z 2400/2424 VRB02KT 4000 FZBCFG BR FEW002 TX06/2412Z TNM05/2405Z
TEMPO 2400/2407 0500 FZFG SCT001
BECMG 2408/2410 9999 FEW050
BECMG 2419/2421 1200 FZBCFG FEW001
TEMPO 2421/2424 0400 FZFG SCT001
Pas de NOTAMs connus pour ce terrain.



MET'MAP, la Météo Aéronautique d'un coup d'oeil ! - Copyright ORBIFLY Décembre 2007 - Disclaimer

ORBIFLY MET'MAP TEAM :

Programmation & Développement : Alexandra Zaïnal
Conception & Développement : Baudouin d'Aumeries
Co-Programmation & Développement : Marc-Olivier Méhu
Soutien technique & logistique : Manuel Goepfert

Contact : metmap@orbifly.com




SOURCES & CREDITS :

   NOAA